This is the latest recevied weather packets stored in our database for station/object W6DSP. If no packets are shown the sender has not sent any weather packets the latest 10 day(s).
| Time | Temp. | Humidity | Pressure | Rain* | Wind** | Luminosity | Snow |
|---|---|---|---|---|---|---|---|
| 1777516509 | 8.33° C | 77% | 1015.1 hPa | 0 mm | - | - | - |
| 1777515781 | 8.89° C | 77% | 1014.9 hPa | 0 mm | - | - | - |
| 1777515033 | 8.89° C | 75% | 1014.8 hPa | 0 mm | - | - | - |
| 1777514331 | 8.89° C | 75% | 1014.7 hPa | 0 mm | - | - | - |
| 1777513625 | 8.89° C | 76% | 1014.7 hPa | 0 mm | - | - | - |
| 1777512915 | 9.44° C | 75% | 1014.5 hPa | 0 mm | - | - | - |
| 1777512172 | 9.44° C | 75% | 1014.3 hPa | 0 mm | - | - | - |
| 1777511472 | 9.44° C | 75% | 1014.3 hPa | 0 mm | - | - | - |
| 1777510721 | 10° C | 75% | 1014.2 hPa | 0 mm | - | - | - |
| 1777509992 | 10° C | 77% | 1014.1 hPa | 0 mm | - | - | - |
| 1777509274 | 10° C | 73% | 1013.9 hPa | 0 mm | - | - | - |
| 1777508518 | 10.56° C | 74% | 1013.8 hPa | 0 mm | - | - | - |
| 1777507768 | 11.11° C | 72% | 1013.7 hPa | 0 mm | - | - | - |
| 1777505611 | 11.67° C | 69% | 1013.2 hPa | 0 mm | - | - | - |
| 1777502628 | 12.22° C | 68% | 1013 hPa | 0 mm | - | - | - |
| 1777501876 | 12.78° C | 68% | 1013 hPa | 0 mm | - | - | - |
| 1777498947 | 13.89° C | 66% | 1012.4 hPa | 0 mm | - | - | - |
| 1777498224 | 13.89° C | 66% | 1012.2 hPa | 0 mm | - | - | - |
| 1777497523 | 14.44° C | 66% | 1012.3 hPa | 0 mm | - | - | - |
| 1777493852 | 13.89° C | 68% | 1012.1 hPa | 0 mm | - | - | - |
| 1777490916 | 15.56° C | 65% | 1011.4 hPa | 0 mm | - | - | - |
| 1777489457 | 15° C | 71% | 1011.4 hPa | 0 mm | - | - | - |
| 1777488700 | 15.56° C | 72% | 1011.3 hPa | 0 mm | - | - | - |
| 1777487257 | 15.56° C | 74% | 1010.9 hPa | 0 mm | - | - | - |
| 1777486547 | 15° C | 77% | 1011.2 hPa | 0 mm | - | - | - |
* Rain latest hour (hover to see other rain measurements)
** Current wind speed in m/s (hover to see current wind gust speed)